This is the latest recevied weather packets stored in our database for station/object DD8XX-10. If no packets are shown the sender has not sent any weather packets the latest 10 day(s).
| Time | Temp. | Humidity | Pressure | Rain* | Wind** | Luminosity | Snow |
|---|---|---|---|---|---|---|---|
| 1777756334 | 13.33° C | 59% | 1024 hPa | - | - | - | - |
| 1777755434 | 13.89° C | 55% | 1023.9 hPa | - | - | - | - |
| 1777754534 | 13.89° C | 60% | 1024 hPa | - | - | - | - |
| 1777753634 | 14.44° C | 57% | 1024.1 hPa | - | - | - | - |
| 1777752733 | 14.44° C | 55% | 1024.1 hPa | - | - | - | - |
| 1777751833 | 15° C | 53% | 1024.1 hPa | - | - | - | - |
| 1777750933 | 15.56° C | 53% | 1023.9 hPa | - | - | - | - |
| 1777750033 | 16.11° C | 50% | 1023.9 hPa | - | - | - | - |
| 1777749133 | 16.11° C | 50% | 1023.7 hPa | - | - | - | - |
| 1777748233 | 16.67° C | 48% | 1023.5 hPa | - | - | - | - |
| 1777747333 | 17.78° C | 46% | 1023.4 hPa | - | - | - | - |
| 1777746432 | 17.78° C | 47% | 1023.2 hPa | - | - | - | - |
| 1777745533 | 18.33° C | 43% | 1023 hPa | - | - | - | - |
| 1777744632 | 18.89° C | 41% | 1022.9 hPa | - | - | - | - |
| 1777743732 | 20.56° C | 35% | 1022.8 hPa | - | - | - | - |
| 1777742832 | 21.11° C | 30% | 1022.7 hPa | - | - | - | - |
| 1777741932 | 21.67° C | 30% | 1022.8 hPa | - | - | - | - |
| 1777741032 | 22.22° C | 30% | 1022.6 hPa | - | - | - | - |
| 1777740132 | 22.22° C | 29% | 1022.7 hPa | - | - | - | - |
| 1777739232 | 22.22° C | 28% | 1022.8 hPa | - | - | - | - |
| 1777738331 | 22.78° C | 28% | 1022.8 hPa | - | - | - | - |
| 1777737431 | 22.78° C | 28% | 1022.9 hPa | - | - | - | - |
| 1777736531 | 23.33° C | 27% | 1022.9 hPa | - | - | - | - |
| 1777735631 | 23.33° C | 27% | 1023.1 hPa | - | - | - | - |
| 1777734731 | 23.89° C | 27% | 1023.2 hPa | - | - | - | - |
* Rain since midnight (hover to see other rain measurements)
** Current wind speed in m/s (hover to see current wind gust speed)